Bookmark and Share
Track history (hours):
 

Vision

More information available from US FCC via Universal Licensing System and Coast Guard Vessel Documentation Center.

Last reported at 2014-Apr-16 18:30 UTC. Time now 2014-Apr-16 19:29 UTC.
Position N 47°36' W 122°22'.

Length 199 m; draft 6.7 m.

Type: Tow > 200 m length. MMSI: 366904000.

NotesDate/timePositionNaut miles runAvg speedWind from/ knotsBaromVisibWave heightAir tempDewpointWater temp
2014-Apr-16 18:30N 47°36' W 122°22'0 0.3
2014-Apr-16 18:13N 47°36' W 122°23'1 1.5
2014-Apr-16 17:33N 47°36' W 122°24'0 1.8
2014-Apr-16 17:33N 47°36' W 122°24'1111.3
2014-Apr-16 16:33N 47°25' W 122°22'015.4
2014-Apr-16 16:33N 47°25' W 122°22'8 8.2
2014-Apr-16 15:33N 47°17' W 122°25'1 0.1
2014-Apr-16 07:11N 47°17' W 122°23'0 0.0
2014-Apr-16 05:29N 47°17' W 122°23'0 0.0
2014-Apr-16 03:11N 47°17' W 122°23'0 0.0
2014-Apr-16 02:23N 47°17' W 122°23'0 0.0
2014-Apr-15 23:33N 47°17' W 122°23'2 1.7
2014-Apr-15 22:33N 47°17' W 122°26'2 2.0
2014-Apr-15 21:33N 47°18' W 122°28'3 9.2
2014-Apr-15 21:16N 47°20' W 122°26'710.0
2014-Apr-15 20:33N 47°27' W 122°25'011.3
2014-Apr-15 20:32N 47°28' W 122°25'9 9.5
2014-Apr-15 19:33N 47°37' W 122°24'0 5.2
2014-Apr-15 19:32N 47°37' W 122°24'1010.7
2014-Apr-15 18:33N 47°47' W 122°27'0 9.9
2014-Apr-15 18:32N 47°47' W 122°27'1010.7
2014-Apr-15 17:33N 47°57' W 122°33'0 9.3
2014-Apr-15 17:32N 47°57' W 122°34'9 9.3
2014-Apr-15 16:33N 48°05' W 122°40'2 9.0
2014-Apr-15 16:22N 48°07' W 122°41'7 8.2
2014-Apr-15 15:33N 48°10' W 122°49'1111.0
2014-Apr-15 14:33N 48°12' W 123°05'11 5.6
2014-Apr-15 12:34N 48°10' W 123°22'8 8.0
2014-Apr-15 11:34N 48°13' W 123°33'9 8.9
2014-Apr-15 10:34N 48°13' W 123°46'1212.0
2014-Apr-15 09:33N 48°16' W 124°04'1312.8
2014-Apr-15 08:34N 48°21' W 124°21'1212.4
2014-Apr-15 07:34N 48°27' W 124°38'1211.8
2014-Apr-15 06:32N 48°29' W 124°56'1111.3
2014-Apr-15 05:32N 48°20' W 125°07'  
2014-Apr-12 23:25N 38°38' W 124°47'910.4
2014-Apr-12 22:33N 38°30' W 124°43'1010.2
2014-Apr-12 21:33N 38°20' W 124°38'1010.2
2014-Apr-12 20:33N 38°13' W 124°28'1110.7
2014-Apr-12 19:33N 38°06' W 124°18'1111.1
2014-Apr-12 18:33N 37°59' W 124°07'1111.2
2014-Apr-12 17:33N 37°52' W 123°56'1111.4
2014-Apr-12 16:33N 37°44' W 123°46'10 9.6
2014-Apr-12 15:33N 37°38' W 123°36'9 9.4
2014-Apr-12 14:33N 37°35' W 123°25'1010.4
2014-Apr-12 13:33N 37°34' W 123°12'1010.4
2014-Apr-12 12:33N 37°36' W 122°59'1111.2
2014-Apr-12 11:33N 37°43' W 122°47'1110.6
2014-Apr-12 10:33N 37°47' W 122°35'10 9.8
2014-Apr-12 09:33N 37°54' W 122°26'1110.8
2014-Apr-12 08:33N 38°03' W 122°19'9 8.9
2014-Apr-12 07:32N 38°02' W 122°08'0 0.1
2014-Apr-12 05:05N 38°02' W 122°08'0 0.0
2014-Apr-12 04:29N 38°02' W 122°08'0 0.0
2014-Apr-12 02:29N 38°02' W 122°08'0 0.0
2014-Apr-12 01:17N 38°02' W 122°08'0 0.0
2014-Apr-12 00:23N 38°02' W 122°08'0 0.0
2014-Apr-11 17:29N 38°02' W 122°08'0 0.0
2014-Apr-11 10:23N 38°02' W 122°08'0 0.0
2014-Apr-11 09:29N 38°02' W 122°08'0 0.0
2014-Apr-11 08:23N 38°02' W 122°08'0 0.0
2014-Apr-11 07:29N 38°02' W 122°08'0 0.0
2014-Apr-11 06:29N 38°02' W 122°08'0 0.0
2014-Apr-11 05:29N 38°02' W 122°08'0 0.0
2014-Apr-11 04:23N 38°02' W 122°08'0 0.0
2014-Apr-11 03:29N 38°02' W 122°08'0 0.0
2014-Apr-11 02:32N 38°02' W 122°08'5 5.0
2014-Apr-11 01:34N 38°04' W 122°14'9 8.7
2014-Apr-11 00:34N 38°01' W 122°24'8 8.1
2014-Apr-10 23:33N 37°53' W 122°25'6 6.1
2014-Apr-10 22:33N 37°48' W 122°31'9 9.4
2014-Apr-10 21:34N 37°44' W 122°42'10 9.6
2014-Apr-10 20:34N 37°38' W 122°51'8 8.1
2014-Apr-10 19:34N 37°34' W 122°60'8 7.8
2014-Apr-10 18:33N 37°32' W 123°09'8 8.2
2014-Apr-10 17:34N 37°34' W 123°19'9 8.4
2014-Apr-10 16:33N 37°35' W 123°30'10 8.5
2014-Apr-10 15:23N 37°38' W 123°42'7 8.4
2014-Apr-10 14:33N 37°44' W 123°47'1010.4
2014-Apr-10 13:33N 37°51' W 123°56'3310.8
2014-Apr-10 10:33N 38°13' W 124°27'1111.0
2014-Apr-10 09:32N 38°21' W 124°37'1111.1
2014-Apr-10 08:34N 38°31' W 124°42'1111.0
2014-Apr-10 07:33N 38°41' W 124°47'2211.0
2014-Apr-10 05:34N 39°01' W 124°58'1110.8
2014-Apr-10 04:34N 39°11' W 125°03'55310.8
2014-Apr-08 01:28N 48°25' W 125°07'9 9.5
2014-Apr-08 00:31N 48°31' W 124°57'2410.9
2014-Apr-07 22:22N 48°25' W 124°23'1012.0
2014-Apr-07 21:33N 48°21' W 124°09'1412.5
2014-Apr-07 20:27N 48°17' W 123°49'1112.3
2014-Apr-07 19:34N 48°15' W 123°33'8 4.2
2014-Apr-07 17:33N 48°08' W 123°26'0 0.1
2014-Apr-07 16:33N 48°08' W 123°26'0 0.0
2014-Apr-07 15:32N 48°08' W 123°26'0 0.1
2014-Apr-07 14:32N 48°08' W 123°26'0 0.1
2014-Apr-07 13:32N 48°08' W 123°26'0 0.1
2014-Apr-07 12:32N 48°08' W 123°26'0 0.0
2014-Apr-07 11:29N 48°08' W 123°26'0 0.1
2014-Apr-07 10:32N 48°08' W 123°26'0 0.0
2014-Apr-07 09:32N 48°08' W 123°26'0 0.1
2014-Apr-07 08:32N 48°08' W 123°26'3 3.0
2014-Apr-07 07:33N 48°08' W 123°21'1111.3
2014-Apr-07 06:33N 48°15' W 123°09'1211.7
2014-Apr-07 05:33N 48°22' W 122°54'1010.2
2014-Apr-07 04:34N 48°30' W 122°44'6 5.7
2014-Apr-07 03:34N 48°31' W 122°35'0 0.1
2014-Apr-07 02:33N 48°31' W 122°35'0 0.0
2014-Apr-07 01:33N 48°31' W 122°35'0 0.0
2014-Apr-07 00:33N 48°31' W 122°35'0 0.0
2014-Apr-06 23:33N 48°31' W 122°35'0 0.0
2014-Apr-06 22:33N 48°31' W 122°35'0 0.0
2014-Apr-06 21:33N 48°31' W 122°35'0 0.0
2014-Apr-06 20:33N 48°31' W 122°35'0 0.0
2014-Apr-06 19:33N 48°31' W 122°35'  

Dump ship's entire track history

sailing weather and tide predictions

Vision — WDF6306 — position and weather